createdAt,value
2022-08-17T00:00:00.025Z,11.50
2022-08-17T00:02:27.709Z,12.70
2022-08-17T00:04:55.407Z,14.77
2022-08-17T00:07:22.975Z,11.27
2022-08-17T00:09:49.909Z,9.15
2022-08-17T00:12:42.664Z,10.15
2022-08-17T00:15:05.841Z,8.93
2022-08-17T00:17:37.921Z,13.43
2022-08-17T00:20:05.476Z,12.07
2022-08-17T00:22:36.303Z,13.50
2022-08-17T00:25:10.467Z,10.20
2022-08-17T00:27:37.211Z,9.25
2022-08-17T00:30:10.164Z,10.73
2022-08-17T00:33:11.987Z,12.90
2022-08-17T00:35:34.404Z,9.85
2022-08-17T00:38:01.146Z,9.20
2022-08-17T00:40:40.034Z,9.88
2022-08-17T00:43:47.110Z,13.10
2022-08-17T00:46:18.033Z,12.00
2022-08-17T00:48:45.781Z,10.27
2022-08-17T00:51:22.782Z,11.20
2022-08-17T00:54:04.303Z,9.05
2022-08-17T00:56:37.905Z,11.60
2022-08-17T00:59:07.507Z,10.07
2022-08-17T01:01:35.214Z,11.27
2022-08-17T01:04:02.886Z,13.20
2022-08-17T01:06:30.070Z,11.07
2022-08-17T01:08:59.480Z,9.30
2022-08-17T01:11:27.813Z,11.45
2022-08-17T01:13:54.686Z,8.60
2022-08-17T01:16:28.697Z,11.93
2022-08-17T01:18:59.483Z,9.90
2022-08-17T01:21:36.464Z,11.85
2022-08-17T01:24:03.966Z,13.77
2022-08-17T01:26:33.054Z,11.57
2022-08-17T01:29:02.389Z,10.63
2022-08-17T01:31:33.686Z,9.57
2022-08-17T01:34:03.059Z,12.70
2022-08-17T01:36:30.543Z,12.18
2022-08-17T01:38:57.345Z,10.90
2022-08-17T01:41:24.638Z,18.27
2022-08-17T01:43:56.884Z,12.05
2022-08-17T01:46:27.880Z,11.68
2022-08-17T01:48:56.376Z,12.05
2022-08-17T01:51:26.238Z,15.60
2022-08-17T01:53:58.077Z,14.40
2022-08-17T01:56:27.313Z,14.52
2022-08-17T01:58:54.624Z,13.73
2022-08-17T02:01:25.265Z,10.88
2022-08-17T02:03:59.747Z,11.95
2022-08-17T02:06:31.452Z,13.55
2022-08-17T02:09:16.513Z,13.90
2022-08-17T02:11:45.276Z,14.82
2022-08-17T02:14:13.838Z,14.60
2022-08-17T02:16:41.299Z,15.00
2022-08-17T02:19:14.730Z,15.63
2022-08-17T02:21:44.457Z,15.38
2022-08-17T02:24:17.771Z,9.48
2022-08-17T02:27:05.451Z,12.43
2022-08-17T02:29:32.555Z,19.13
2022-08-17T02:32:00.256Z,15.43
2022-08-17T02:34:27.576Z,16.30
2022-08-17T02:36:54.485Z,12.30
2022-08-17T02:39:21.732Z,13.07
2022-08-17T02:41:48.947Z,16.08
2022-08-17T02:44:38.909Z,11.00
2022-08-17T02:47:04.166Z,14.30
2022-08-17T02:49:31.033Z,16.90
2022-08-17T02:51:58.719Z,13.52
2022-08-17T02:54:39.706Z,12.75
2022-08-17T02:57:10.067Z,14.75
2022-08-17T02:59:38.755Z,15.05
2022-08-17T03:02:12.482Z,11.50
2022-08-17T03:04:39.204Z,17.58
2022-08-17T03:07:06.682Z,11.45
2022-08-17T03:09:33.463Z,13.82
2022-08-17T03:12:12.924Z,13.50
2022-08-17T03:14:41.926Z,12.20
2022-08-17T03:17:10.300Z,12.18
2022-08-17T03:19:37.643Z,14.77
2022-08-17T03:22:36.864Z,12.57
2022-08-17T03:24:56.875Z,18.05
2022-08-17T03:27:23.627Z,14.30
2022-08-17T03:29:50.495Z,15.52
2022-08-17T03:32:17.468Z,17.25
2022-08-17T03:34:44.313Z,18.30
2022-08-17T03:37:11.115Z,13.75
2022-08-17T03:39:38.334Z,18.20
2022-08-17T03:42:31.859Z,14.98
2022-08-17T03:45:00.613Z,13.57
2022-08-17T03:47:46.767Z,17.85
2022-08-17T03:50:33.933Z,14.35
2022-08-17T03:53:21.842Z,17.00
2022-08-17T03:56:07.220Z,14.52
2022-08-17T03:58:34.084Z,11.95
2022-08-17T04:01:01.405Z,11.30
2022-08-17T04:03:28.690Z,12.60
2022-08-17T04:05:55.630Z,11.27
2022-08-17T04:08:22.550Z,12.85
2022-08-17T04:10:49.526Z,14.32
2022-08-17T04:13:16.260Z,14.20
2022-08-17T04:15:51.894Z,17.67
2022-08-17T04:18:19.201Z,22.63
2022-08-17T04:20:46.022Z,39.10
2022-08-17T04:23:17.301Z,26.92
2022-08-17T04:25:50.645Z,33.25
2022-08-17T04:28:19.064Z,26.33
2022-08-17T04:30:47.394Z,33.35
2022-08-17T04:33:17.952Z,36.67
2022-08-17T04:35:47.898Z,33.47
2022-08-17T04:38:20.946Z,31.83
2022-08-17T04:41:06.614Z,24.92
2022-08-17T04:43:35.444Z,24.23
2022-08-17T04:46:09.030Z,22.85
2022-08-17T04:48:57.434Z,23.65
2022-08-17T04:51:34.401Z,16.63
2022-08-17T04:54:04.667Z,17.15
2022-08-17T04:56:32.992Z,21.33
2022-08-17T04:59:08.964Z,22.02
2022-08-17T05:01:38.945Z,18.08
2022-08-17T05:04:33.092Z,21.35
2022-08-17T05:06:58.012Z,15.88
2022-08-17T05:09:25.251Z,14.02
2022-08-17T05:11:52.259Z,19.20
2022-08-17T05:14:22.623Z,17.98
2022-08-17T05:17:00.137Z,16.95
2022-08-17T05:19:28.113Z,15.63
2022-08-17T05:21:55.078Z,12.23
2022-08-17T05:24:42.879Z,16.27
2022-08-17T05:27:08.640Z,11.55
2022-08-17T05:29:36.014Z,14.18
2022-08-17T05:32:38.614Z,13.23
2022-08-17T05:37:26.931Z,13.63
2022-08-17T05:39:54.514Z,12.13
2022-08-17T05:42:21.945Z,16.65
2022-08-17T05:44:48.806Z,13.52
2022-08-17T05:47:15.840Z,15.70
2022-08-17T05:49:42.619Z,11.20
2022-08-17T05:52:24.429Z,9.68
2022-08-17T05:54:57.316Z,11.10
2022-08-17T05:57:30.709Z,12.93
2022-08-17T06:00:11.082Z,12.65
2022-08-17T06:03:04.920Z,18.85
2022-08-17T06:05:54.122Z,14.23
2022-08-17T06:08:34.380Z,12.95
2022-08-17T06:11:22.878Z,9.07
2022-08-17T06:14:12.339Z,15.20
2022-08-17T06:16:44.596Z,13.55
2022-08-17T06:19:31.593Z,15.82
2022-08-17T06:21:59.017Z,19.63
2022-08-17T06:24:39.608Z,10.48
2022-08-17T06:27:18.538Z,10.27
2022-08-17T06:30:02.427Z,10.95
2022-08-17T06:32:29.819Z,7.35
2022-08-17T06:34:57.764Z,12.98
2022-08-17T06:37:41.208Z,13.18
2022-08-17T06:40:26.674Z,8.07
2022-08-17T06:43:19.444Z,8.32
2022-08-17T06:45:57.632Z,11.38
2022-08-17T06:48:33.680Z,11.05
2022-08-17T06:51:07.239Z,9.70
2022-08-17T06:53:46.516Z,14.85
2022-08-17T06:56:23.748Z,14.23
2022-08-17T06:58:55.938Z,10.52
2022-08-17T07:01:30.923Z,13.60
2022-08-17T07:04:13.108Z,11.50
2022-08-17T07:06:39.830Z,12.40
2022-08-17T07:09:28.157Z,8.35
2022-08-17T07:12:05.422Z,15.10
2022-08-17T07:14:41.114Z,11.38
2022-08-17T07:17:14.100Z,11.35
2022-08-17T07:19:45.733Z,12.93
2022-08-17T07:22:18.521Z,9.77
2022-08-17T07:24:47.217Z,9.05
2022-08-17T07:27:21.950Z,9.38
2022-08-17T07:30:22.868Z,10.82
2022-08-17T07:33:09.495Z,12.85
2022-08-17T07:35:44.185Z,6.82
2022-08-17T07:38:28.047Z,8.35
2022-08-17T07:41:05.018Z,10.75
2022-08-17T07:43:40.636Z,8.18
2022-08-17T07:46:50.523Z,13.60
2022-08-17T07:49:32.173Z,7.30
2022-08-17T07:52:47.302Z,14.75
2022-08-17T07:54:49.337Z,12.65
2022-08-17T07:57:19.451Z,9.98
2022-08-17T08:00:16.998Z,6.95
2022-08-17T08:02:47.689Z,11.38
2022-08-17T08:05:48.754Z,9.77
2022-08-17T08:08:33.226Z,8.65
2022-08-17T08:11:07.471Z,5.80
2022-08-17T08:13:36.063Z,17.90
2022-08-17T08:16:19.934Z,8.50
2022-08-17T08:18:56.115Z,10.80
2022-08-17T08:22:02.352Z,6.43
2022-08-17T08:25:07.972Z,6.38
2022-08-17T08:27:41.038Z,7.85
2022-08-17T08:30:15.130Z,10.95
2022-08-17T08:33:27.398Z,7.68
2022-08-17T08:36:07.534Z,12.82
2022-08-17T08:39:15.995Z,10.02
2022-08-17T08:42:00.740Z,13.45
2022-08-17T08:45:00.998Z,10.50
2022-08-17T08:47:44.278Z,7.70
2022-08-17T08:50:37.949Z,5.45
2022-08-17T08:55:50.796Z,5.78
2022-08-17T08:58:50.842Z,9.95
2022-08-17T09:01:34.380Z,7.00
2022-08-17T09:04:29.366Z,5.43
2022-08-17T09:07:34.957Z,9.35
2022-08-17T09:10:30.951Z,4.93
2022-08-17T09:13:22.066Z,5.22
2022-08-17T09:15:57.650Z,7.15
2022-08-17T09:18:59.305Z,6.53
2022-08-17T09:21:54.591Z,7.57
2022-08-17T09:24:32.035Z,5.05
2022-08-17T09:27:23.759Z,5.45
2022-08-17T09:30:18.334Z,5.32
2022-08-17T09:32:55.466Z,4.18
2022-08-17T09:36:07.485Z,6.28
2022-08-17T09:39:00.297Z,4.93
2022-08-17T09:41:49.196Z,7.32
2022-08-17T09:44:40.583Z,8.73
2022-08-17T09:47:26.261Z,4.57
2022-08-17T09:49:58.746Z,6.95
2022-08-17T09:52:28.549Z,9.65
2022-08-17T09:54:57.723Z,8.32
2022-08-17T09:58:04.992Z,8.18
2022-08-17T10:00:37.516Z,5.30
2022-08-17T10:03:32.458Z,6.18
2022-08-17T10:06:13.285Z,7.38
2022-08-17T10:08:52.462Z,5.30
2022-08-17T10:11:53.085Z,7.47
2022-08-17T10:14:57.173Z,4.85
2022-08-17T10:17:50.645Z,7.50
2022-08-17T10:20:30.852Z,5.63
2022-08-17T10:23:29.955Z,7.85
2022-08-17T10:26:15.934Z,5.80
2022-08-17T10:29:15.783Z,2.97
2022-08-17T10:32:08.782Z,7.68
2022-08-17T10:34:40.391Z,5.95
2022-08-17T10:37:43.201Z,3.80
2022-08-17T10:40:34.692Z,5.35
2022-08-17T10:44:36.563Z,8.60
2022-08-17T10:47:04.384Z,7.85
2022-08-17T10:49:38.930Z,5.00
2022-08-17T10:52:21.839Z,8.32
2022-08-17T10:55:12.367Z,4.72
2022-08-17T10:57:45.263Z,7.00
2022-08-17T11:00:27.900Z,4.00
2022-08-17T11:02:56.095Z,7.10
2022-08-17T11:05:52.294Z,7.25
2022-08-17T11:08:39.285Z,5.20
2022-08-17T11:11:25.939Z,10.75
2022-08-17T11:14:14.784Z,9.93
2022-08-17T11:16:48.069Z,9.73
2022-08-17T11:19:37.371Z,8.25
2022-08-17T11:22:31.311Z,16.30
2022-08-17T11:25:13.037Z,13.90
2022-08-17T11:27:40.549Z,9.55
2022-08-17T11:30:29.513Z,6.03
2022-08-17T11:32:58.436Z,9.98
2022-08-17T11:35:38.342Z,8.85
2022-08-17T11:38:05.186Z,7.30
2022-08-17T11:41:18.641Z,9.55
2022-08-17T11:44:19.265Z,8.70
2022-08-17T11:47:29.703Z,5.90
2022-08-17T11:50:27.754Z,9.10
2022-08-17T11:52:55.492Z,5.18
2022-08-17T11:55:39.343Z,5.82
2022-08-17T11:58:30.496Z,5.20
2022-08-17T12:00:57.270Z,5.80
2022-08-17T12:03:36.955Z,6.38
2022-08-17T12:06:19.529Z,5.68
2022-08-17T12:08:56.829Z,7.28
2022-08-17T12:11:55.338Z,5.45
2022-08-17T12:15:07.967Z,4.63
2022-08-17T12:17:40.389Z,6.53
2022-08-17T12:20:24.067Z,5.03
2022-08-17T12:23:04.531Z,9.85
2022-08-17T12:25:39.191Z,5.43
2022-08-17T12:28:22.219Z,4.40
2022-08-17T12:30:51.911Z,3.55
2022-08-17T12:33:25.581Z,4.22
2022-08-17T12:36:04.176Z,5.63
2022-08-17T12:38:34.673Z,8.68
2022-08-17T12:41:25.321Z,4.75
2022-08-17T12:44:02.271Z,6.93
2022-08-17T12:46:45.289Z,7.15
2022-08-17T12:49:14.694Z,6.13
2022-08-17T12:51:48.191Z,9.85
2022-08-17T12:57:12.051Z,5.00
2022-08-17T13:00:00.908Z,14.27
2022-08-17T13:02:37.887Z,5.72
2022-08-17T13:05:06.001Z,8.25
2022-08-17T13:07:42.621Z,9.02
2022-08-17T13:10:18.304Z,5.47
2022-08-17T13:12:45.212Z,5.43
2022-08-17T13:15:33.688Z,8.75
2022-08-17T13:18:10.744Z,5.55
2022-08-17T13:20:37.713Z,4.35
2022-08-17T13:23:11.965Z,8.70
2022-08-17T13:25:41.050Z,8.07
2022-08-17T13:28:18.446Z,8.73
2022-08-17T13:31:26.336Z,5.90
2022-08-17T13:33:53.187Z,5.00
2022-08-17T13:36:30.420Z,7.43
2022-08-17T13:39:17.612Z,4.13
2022-08-17T13:41:45.525Z,3.60
2022-08-17T13:44:32.889Z,6.20
2022-08-17T13:47:00.807Z,5.13
2022-08-17T13:49:48.449Z,4.38
2022-08-17T13:52:39.500Z,7.93
2022-08-17T13:55:20.682Z,10.05
2022-08-17T13:58:06.546Z,4.18
2022-08-17T14:00:36.753Z,5.95
2022-08-17T14:03:05.228Z,5.25
2022-08-17T14:05:32.516Z,4.60
2022-08-17T14:08:07.107Z,6.90
2022-08-17T14:10:36.500Z,7.40
2022-08-17T14:13:05.344Z,5.88
2022-08-17T14:15:56.021Z,6.85
2022-08-17T14:18:55.563Z,5.03
2022-08-17T14:21:08.488Z,4.90
2022-08-17T14:23:36.783Z,3.60
2022-08-17T14:26:04.083Z,4.40
2022-08-17T14:28:30.942Z,3.55
2022-08-17T14:31:00.406Z,5.45
2022-08-17T14:33:28.933Z,5.03
2022-08-17T14:35:56.029Z,4.30
2022-08-17T14:38:23.349Z,7.50
2022-08-17T14:40:50.303Z,3.47
2022-08-17T14:43:17.888Z,5.82
2022-08-17T14:45:44.721Z,5.63
2022-08-17T14:48:11.547Z,6.28
2022-08-17T14:50:41.901Z,3.63
2022-08-17T14:53:11.259Z,5.63
2022-08-17T14:55:40.626Z,6.28
2022-08-17T14:58:08.996Z,3.83
2022-08-17T15:00:37.051Z,5.68
2022-08-17T15:03:04.346Z,7.35
2022-08-17T15:05:36.654Z,6.15
2022-08-17T15:08:05.609Z,5.57
2022-08-17T15:10:33.006Z,3.88
2022-08-17T15:13:00.486Z,6.55
2022-08-17T15:15:28.549Z,9.93
2022-08-17T15:17:55.688Z,3.80
2022-08-17T15:20:28.046Z,4.68
2022-08-17T15:22:57.253Z,4.73
2022-08-17T15:25:27.510Z,5.78
2022-08-17T15:27:55.890Z,3.80
2022-08-17T15:30:24.258Z,3.92
2022-08-17T15:32:55.258Z,5.65
2022-08-17T15:35:28.198Z,6.10
2022-08-17T15:40:42.919Z,4.32
2022-08-17T15:43:14.491Z,8.63
2022-08-17T15:45:41.512Z,4.55
2022-08-17T15:48:09.048Z,8.23
2022-08-17T15:50:36.769Z,6.53
2022-08-17T15:53:04.911Z,7.53
2022-08-17T15:55:32.799Z,7.53
2022-08-17T15:58:00.231Z,12.00
2022-08-17T16:00:29.311Z,7.25
2022-08-17T16:03:45.398Z,9.10
2022-08-17T16:05:46.806Z,8.90
2022-08-17T16:08:20.939Z,9.77
2022-08-17T16:10:49.770Z,12.93
2022-08-17T16:13:18.356Z,8.30
2022-08-17T16:15:56.602Z,5.72
2022-08-17T16:18:31.378Z,8.48
2022-08-17T16:21:23.359Z,12.38
2022-08-17T16:23:52.843Z,8.70
2022-08-17T16:26:19.823Z,6.88
2022-08-17T16:28:47.035Z,7.40
2022-08-17T16:31:15.171Z,6.25
2022-08-17T16:33:43.045Z,6.35
2022-08-17T16:36:29.895Z,5.85
2022-08-17T16:38:57.186Z,9.38
2022-08-17T16:41:42.619Z,6.68
2022-08-17T16:44:09.364Z,9.23
2022-08-17T16:46:45.621Z,6.30
2022-08-17T16:49:35.557Z,7.68
2022-08-17T16:52:02.950Z,6.43
2022-08-17T16:54:29.769Z,15.70
2022-08-17T16:56:56.533Z,7.18
2022-08-17T16:59:38.826Z,9.43
2022-08-17T17:02:10.911Z,6.78
2022-08-17T17:05:25.206Z,4.93
2022-08-17T17:08:03.864Z,7.63
2022-08-17T17:10:39.613Z,8.27
2022-08-17T17:13:26.283Z,6.35
2022-08-17T17:16:01.209Z,10.02
2022-08-17T17:18:42.739Z,9.20
2022-08-17T17:21:16.804Z,7.30
2022-08-17T17:23:59.732Z,11.73
2022-08-17T17:27:02.999Z,9.57
2022-08-17T17:30:00.299Z,9.55
2022-08-17T17:32:40.221Z,6.38
2022-08-17T17:35:18.267Z,8.13
2022-08-17T17:37:46.949Z,11.27
2022-08-17T17:40:20.552Z,14.15
2022-08-17T17:42:49.171Z,8.00
2022-08-17T17:45:26.272Z,7.82
2022-08-17T17:47:53.372Z,8.18
2022-08-17T17:50:29.058Z,12.05
2022-08-17T17:53:35.146Z,7.40
2022-08-17T17:56:44.240Z,7.93
2022-08-17T17:59:33.188Z,11.48
2022-08-17T18:02:41.730Z,9.23
2022-08-17T18:05:38.712Z,11.95
2022-08-17T18:08:33.836Z,11.27
2022-08-17T18:11:24.038Z,11.68
2022-08-17T18:14:14.451Z,11.43
2022-08-17T18:16:45.190Z,9.80
2022-08-17T18:19:20.729Z,9.68
2022-08-17T18:21:52.892Z,9.60
2022-08-17T18:24:34.020Z,12.57
2022-08-17T18:27:08.489Z,9.73
2022-08-17T18:29:43.373Z,6.38
2022-08-17T18:32:19.151Z,11.90
2022-08-17T18:34:48.739Z,10.75
2022-08-17T18:37:53.069Z,9.30
2022-08-17T18:40:19.987Z,13.25
2022-08-17T18:43:03.139Z,11.93
2022-08-17T18:45:51.132Z,10.65
2022-08-17T18:48:36.566Z,14.07
2022-08-17T18:51:42.073Z,8.15
2022-08-17T18:54:24.522Z,10.82
2022-08-17T18:57:00.536Z,9.43
2022-08-17T18:59:49.652Z,9.18
2022-08-17T19:02:36.084Z,11.05
2022-08-17T19:05:09.099Z,8.55
2022-08-17T19:07:46.297Z,9.60
2022-08-17T19:10:22.372Z,10.18
2022-08-17T19:12:55.298Z,12.68
2022-08-17T19:15:35.846Z,15.77
2022-08-17T19:18:30.745Z,9.05
2022-08-17T19:21:10.040Z,9.95
2022-08-17T19:23:54.087Z,12.80
2022-08-17T19:26:50.656Z,9.30
2022-08-17T19:30:07.791Z,10.77
2022-08-17T19:32:36.265Z,13.48
2022-08-17T19:35:07.555Z,8.20
2022-08-17T19:37:56.561Z,11.05
2022-08-17T19:40:58.533Z,10.48
2022-08-17T19:43:37.995Z,8.93
2022-08-17T19:46:13.637Z,15.57
2022-08-17T19:48:55.331Z,11.57
2022-08-17T19:51:40.970Z,20.58
2022-08-17T19:54:24.754Z,11.52
2022-08-17T19:57:27.813Z,10.63
2022-08-17T19:59:59.203Z,21.05
2022-08-17T20:02:53.519Z,11.43
2022-08-17T20:05:29.372Z,8.50
2022-08-17T20:08:08.532Z,10.95
2022-08-17T20:11:21.534Z,11.05
2022-08-17T20:13:59.716Z,12.35
2022-08-17T20:16:26.725Z,20.88
2022-08-17T20:19:39.393Z,11.20
2022-08-17T20:22:16.844Z,10.75
2022-08-17T20:24:45.530Z,8.57
2022-08-17T20:27:12.299Z,18.33
2022-08-17T20:30:09.820Z,11.90
2022-08-17T20:32:48.757Z,15.07
2022-08-17T20:35:26.476Z,10.80
2022-08-17T20:37:57.565Z,17.35
2022-08-17T20:40:49.360Z,10.55
2022-08-17T20:43:49.312Z,12.43
2022-08-17T20:46:38.316Z,11.70
2022-08-17T20:49:14.924Z,10.18
2022-08-17T20:52:00.692Z,12.45
2022-08-17T20:54:50.135Z,10.55
2022-08-17T20:57:32.382Z,10.50
2022-08-17T21:00:17.550Z,13.52
2022-08-17T21:02:49.794Z,13.10
2022-08-17T21:05:59.757Z,13.13
2022-08-17T21:08:53.354Z,12.82
2022-08-17T21:12:02.148Z,11.80
2022-08-17T21:14:39.429Z,13.30
2022-08-17T21:18:01.532Z,10.32
2022-08-17T21:20:49.478Z,13.68
2022-08-17T21:23:38.021Z,11.55
2022-08-17T21:26:30.838Z,12.82
2022-08-17T21:29:29.775Z,12.27
2022-08-17T21:32:03.614Z,13.77
2022-08-17T21:34:35.108Z,15.93
2022-08-17T21:37:20.514Z,12.70
2022-08-17T21:39:52.242Z,19.52
2022-08-17T21:42:26.664Z,11.48
2022-08-17T21:44:58.113Z,10.63
2022-08-17T21:47:29.350Z,13.40
2022-08-17T21:50:16.129Z,14.85
2022-08-17T21:52:43.614Z,12.82
2022-08-17T21:55:29.101Z,19.23
2022-08-17T21:58:14.277Z,14.65
2022-08-17T22:00:45.347Z,13.80
2022-08-17T22:03:24.096Z,11.57
2022-08-17T22:05:51.549Z,12.60
2022-08-17T22:08:22.244Z,11.50
2022-08-17T22:10:51.562Z,15.25
2022-08-17T22:13:18.327Z,12.63
2022-08-17T22:16:15.710Z,13.45
2022-08-17T22:18:58.206Z,11.80
2022-08-17T22:21:27.326Z,11.10
2022-08-17T22:24:15.793Z,10.40
2022-08-17T22:27:10.497Z,11.65
2022-08-17T22:32:49.441Z,11.40
2022-08-17T22:35:39.691Z,12.37
2022-08-17T22:38:18.906Z,10.68
2022-08-17T22:40:50.087Z,10.90
2022-08-17T22:43:26.050Z,12.40
2022-08-17T22:45:59.088Z,12.00
2022-08-17T22:48:29.325Z,11.50
2022-08-17T22:51:13.790Z,16.00
2022-08-17T22:54:13.487Z,11.63
2022-08-17T22:57:15.618Z,10.77
2022-08-17T22:59:54.580Z,11.82
2022-08-17T23:02:28.078Z,11.00
2022-08-17T23:05:13.208Z,12.50
2022-08-17T23:07:40.593Z,11.20
2022-08-17T23:10:10.303Z,12.00
2022-08-17T23:12:39.157Z,13.93
2022-08-17T23:15:14.469Z,10.85
2022-08-17T23:17:42.293Z,15.65
2022-08-17T23:20:15.205Z,14.75
2022-08-17T23:22:51.456Z,16.05
2022-08-17T23:25:28.217Z,13.50
2022-08-17T23:27:57.692Z,12.95
2022-08-17T23:30:25.743Z,13.50
2022-08-17T23:32:54.520Z,12.55
2022-08-17T23:35:40.370Z,18.05
2022-08-17T23:38:12.689Z,11.23
2022-08-17T23:40:40.979Z,17.63
2022-08-17T23:43:24.225Z,11.43
2022-08-17T23:45:58.186Z,11.40
2022-08-17T23:48:35.678Z,23.98
2022-08-17T23:51:08.790Z,22.15
2022-08-17T23:53:37.140Z,16.25
2022-08-17T23:56:10.450Z,11.15
2022-08-17T23:58:43.152Z,14.10
